createdAt,value
2018-08-17T00:00:08.407Z,93.30
2018-08-17T00:02:37.089Z,93.60
2018-08-17T00:05:05.456Z,93.50
2018-08-17T00:07:33.897Z,93.50
2018-08-17T00:10:03.600Z,93.90
2018-08-17T00:12:32.184Z,93.90
2018-08-17T00:15:00.685Z,93.90
2018-08-17T00:17:29.113Z,93.80
2018-08-17T00:19:57.484Z,93.50
2018-08-17T00:22:26.420Z,93.70
2018-08-17T00:24:54.896Z,93.20
2018-08-17T00:27:23.496Z,93.30
2018-08-17T00:29:52.476Z,93.20
2018-08-17T00:32:22.023Z,92.90
2018-08-17T00:34:50.556Z,92.70
2018-08-17T00:37:19.521Z,92.80
2018-08-17T00:39:48.377Z,93.10
2018-08-17T00:42:17.051Z,93.00
2018-08-17T00:44:45.762Z,92.50
2018-08-17T00:47:14.270Z,92.50
2018-08-17T00:49:43.527Z,92.20
2018-08-17T00:52:11.972Z,92.40
2018-08-17T00:54:40.492Z,92.70
2018-08-17T00:57:09.513Z,92.60
2018-08-17T00:59:38.245Z,92.70
2018-08-17T01:02:06.858Z,92.80
2018-08-17T01:07:40.696Z,92.90
2018-08-17T01:10:58.161Z,92.90
2018-08-17T01:13:26.921Z,92.90
2018-08-17T01:15:56.116Z,93.00
2018-08-17T01:18:25.303Z,93.10
2018-08-17T01:20:53.905Z,93.10
2018-08-17T01:23:22.693Z,93.10
2018-08-17T01:25:51.507Z,93.20
2018-08-17T01:28:20.362Z,93.30
2018-08-17T01:30:49.097Z,93.30
2018-08-17T01:33:17.634Z,93.20
2018-08-17T01:35:46.239Z,93.10
2018-08-17T01:38:14.789Z,93.20
2018-08-17T01:40:43.387Z,93.30
2018-08-17T01:43:12.108Z,93.10
2018-08-17T01:45:40.982Z,93.10
2018-08-17T01:48:09.484Z,93.10
2018-08-17T01:50:38.180Z,93.10
2018-08-17T01:53:06.997Z,93.20
2018-08-17T01:55:35.704Z,93.30
2018-08-17T01:58:04.100Z,93.30
2018-08-17T02:00:32.806Z,93.30
2018-08-17T02:03:01.517Z,93.30
2018-08-17T02:05:30.078Z,93.30
2018-08-17T02:07:58.680Z,93.40
2018-08-17T02:10:27.434Z,93.40
2018-08-17T02:12:55.868Z,93.50
2018-08-17T02:15:24.581Z,93.50
2018-08-17T02:17:53.308Z,93.50
2018-08-17T02:20:22.128Z,93.40
2018-08-17T02:22:50.928Z,93.50
2018-08-17T02:25:19.484Z,93.40
2018-08-17T02:27:48.229Z,93.40
2018-08-17T02:30:17.071Z,93.40
2018-08-17T02:32:46.058Z,93.40
2018-08-17T02:35:14.979Z,93.40
2018-08-17T02:37:43.755Z,93.30
2018-08-17T02:40:12.610Z,93.50
2018-08-17T02:42:41.234Z,93.50
2018-08-17T02:45:10.309Z,93.40
2018-08-17T02:47:39.192Z,93.60
2018-08-17T02:50:08.098Z,93.70
2018-08-17T02:52:36.892Z,94.20
2018-08-17T02:55:05.895Z,93.80
2018-08-17T02:57:35.154Z,93.70
2018-08-17T03:00:03.815Z,93.80
2018-08-17T03:02:32.643Z,93.80
2018-08-17T03:05:01.244Z,93.70
2018-08-17T03:07:30.107Z,93.80
2018-08-17T03:09:59.591Z,93.90
2018-08-17T03:12:28.251Z,93.70
2018-08-17T03:14:57.114Z,93.70
2018-08-17T03:17:26.196Z,93.60
2018-08-17T03:19:55.670Z,93.70
2018-08-17T03:22:24.251Z,93.70
2018-08-17T03:24:53.172Z,93.70
2018-08-17T03:27:22.592Z,93.60
2018-08-17T03:29:51.410Z,93.60
2018-08-17T03:32:20.299Z,93.70
2018-08-17T03:34:48.818Z,93.70
2018-08-17T03:37:17.784Z,93.70
2018-08-17T03:39:46.679Z,93.90
2018-08-17T03:42:15.629Z,93.90
2018-08-17T03:44:44.745Z,93.80
2018-08-17T03:47:13.912Z,93.80
2018-08-17T03:49:42.859Z,93.70
2018-08-17T03:52:11.585Z,93.80
2018-08-17T03:54:40.129Z,93.70
2018-08-17T03:57:09.014Z,93.70
2018-08-17T03:59:37.863Z,93.80
2018-08-17T04:02:06.995Z,93.70
2018-08-17T04:04:36.169Z,94.10
2018-08-17T04:07:05.311Z,93.80
2018-08-17T04:09:34.077Z,93.80
2018-08-17T04:12:03.154Z,93.80
2018-08-17T04:14:32.086Z,93.80
2018-08-17T04:17:00.574Z,93.80
2018-08-17T04:19:29.057Z,93.80
2018-08-17T04:21:57.657Z,93.90
2018-08-17T04:24:26.288Z,93.90
2018-08-17T04:26:55.109Z,93.90
2018-08-17T04:29:23.785Z,94.00
2018-08-17T04:31:52.417Z,94.00
2018-08-17T04:34:21.043Z,94.00
2018-08-17T04:36:49.609Z,94.40
2018-08-17T04:39:18.152Z,94.00
2018-08-17T04:41:47.032Z,94.20
2018-08-17T04:44:15.668Z,94.00
2018-08-17T04:46:44.344Z,94.00
2018-08-17T04:49:13.059Z,94.00
2018-08-17T04:51:41.763Z,94.10
2018-08-17T04:54:10.156Z,94.10
2018-08-17T04:56:38.539Z,94.20
2018-08-17T04:59:07.316Z,94.20
2018-08-17T05:01:36.154Z,94.10
2018-08-17T05:04:05.042Z,94.20
2018-08-17T05:06:33.530Z,94.20
2018-08-17T05:09:02.183Z,94.20
2018-08-17T05:11:30.961Z,94.30
2018-08-17T05:13:59.541Z,94.40
2018-08-17T05:16:28.515Z,94.30
2018-08-17T05:18:57.333Z,94.40
2018-08-17T05:21:25.845Z,94.30
2018-08-17T05:23:54.420Z,94.40
2018-08-17T05:26:23.228Z,94.30
2018-08-17T05:28:52.172Z,94.30
2018-08-17T05:31:20.732Z,94.40
2018-08-17T05:33:49.387Z,94.30
2018-08-17T05:36:17.952Z,94.40
2018-08-17T05:38:46.729Z,94.40
2018-08-17T05:41:15.712Z,94.50
2018-08-17T05:43:44.371Z,94.40
2018-08-17T05:46:12.953Z,94.40
2018-08-17T05:48:41.378Z,94.40
2018-08-17T05:51:10.101Z,94.50
2018-08-17T05:53:39.028Z,94.40
2018-08-17T05:56:07.810Z,94.50
2018-08-17T05:58:36.244Z,94.90
2018-08-17T06:01:04.891Z,94.60
2018-08-17T06:03:33.275Z,94.70
2018-08-17T06:06:02.106Z,94.60
2018-08-17T06:08:30.555Z,94.80
2018-08-17T06:10:59.417Z,94.80
2018-08-17T06:13:28.188Z,94.80
2018-08-17T06:15:57.140Z,94.70
2018-08-17T06:18:25.744Z,94.70
2018-08-17T06:20:54.563Z,94.80
2018-08-17T06:23:23.253Z,94.80
2018-08-17T06:25:51.807Z,94.70
2018-08-17T06:28:20.318Z,94.50
2018-08-17T06:30:48.828Z,94.50
2018-08-17T06:33:17.281Z,94.50
2018-08-17T06:35:45.716Z,94.60
2018-08-17T06:38:14.389Z,94.60
2018-08-17T06:40:42.894Z,94.40
2018-08-17T06:43:12.098Z,94.40
2018-08-17T06:45:41.021Z,94.30
2018-08-17T06:48:09.856Z,94.50
2018-08-17T06:50:38.265Z,94.40
2018-08-17T06:53:07.052Z,94.40
2018-08-17T06:55:36.736Z,94.30
2018-08-17T06:58:05.838Z,94.30
2018-08-17T07:00:34.744Z,94.30
2018-08-17T07:03:03.566Z,94.30
2018-08-17T07:05:32.397Z,94.40
2018-08-17T07:08:00.923Z,94.40
2018-08-17T07:10:29.956Z,94.20
2018-08-17T07:12:58.722Z,94.30
2018-08-17T07:15:27.367Z,94.10
2018-08-17T07:17:56.100Z,94.00
2018-08-17T07:20:25.080Z,93.80
2018-08-17T07:22:54.163Z,93.80
2018-08-17T07:25:22.873Z,93.80
2018-08-17T07:27:51.451Z,93.50
2018-08-17T07:30:19.917Z,93.10
2018-08-17T07:32:48.648Z,93.40
2018-08-17T07:35:17.256Z,93.30
2018-08-17T07:37:45.863Z,93.10
2018-08-17T07:40:14.470Z,93.00
2018-08-17T07:42:51.727Z,93.00
2018-08-17T07:45:26.961Z,92.90
2018-08-17T07:48:01.722Z,92.40
2018-08-17T07:50:31.772Z,92.20
2018-08-17T07:53:04.777Z,92.10
2018-08-17T07:55:35.158Z,92.20
2018-08-17T07:58:03.594Z,91.20
2018-08-17T08:00:32.269Z,90.70
2018-08-17T08:03:00.893Z,90.70
2018-08-17T08:05:29.332Z,90.80
2018-08-17T08:07:57.844Z,90.60
2018-08-17T08:10:45.755Z,90.20
2018-08-17T08:13:15.924Z,87.20
2018-08-17T08:15:44.632Z,87.60
2018-08-17T08:18:13.210Z,88.40
2018-08-17T08:20:43.440Z,88.00
2018-08-17T08:23:24.155Z,88.30
2018-08-17T08:25:52.641Z,87.00
2018-08-17T08:28:21.340Z,86.80
2018-08-17T08:30:49.787Z,85.20
2018-08-17T08:33:18.846Z,85.10
2018-08-17T08:35:47.876Z,85.70
2018-08-17T08:38:16.281Z,85.80
2018-08-17T08:40:45.551Z,85.80
2018-08-17T08:43:14.017Z,86.30
2018-08-17T08:45:42.486Z,84.50
2018-08-17T08:48:11.213Z,84.30
2018-08-17T08:50:39.976Z,83.80
2018-08-17T08:53:09.319Z,84.30
2018-08-17T08:55:38.001Z,83.20
2018-08-17T08:58:07.767Z,81.40
2018-08-17T09:00:36.420Z,81.70
2018-08-17T09:03:05.092Z,80.30
2018-08-17T09:05:33.530Z,82.00
2018-08-17T09:08:01.898Z,81.60
2018-08-17T09:10:30.605Z,80.70
2018-08-17T09:12:59.130Z,78.10
2018-08-17T09:15:27.573Z,78.60
2018-08-17T09:17:55.992Z,77.70
2018-08-17T09:20:24.426Z,75.70
2018-08-17T09:22:52.861Z,76.10
2018-08-17T09:25:21.381Z,76.30
2018-08-17T09:27:49.889Z,77.60
2018-08-17T09:30:18.446Z,77.60
2018-08-17T09:32:47.080Z,77.70
2018-08-17T09:35:15.514Z,77.70
2018-08-17T09:37:44.057Z,78.80
2018-08-17T09:40:12.792Z,77.90
2018-08-17T09:42:41.219Z,76.70
2018-08-17T09:45:11.562Z,75.10
2018-08-17T09:47:40.299Z,77.30
2018-08-17T09:50:10.795Z,76.00
2018-08-17T09:52:39.248Z,75.90
2018-08-17T09:55:07.624Z,75.50
2018-08-17T09:57:35.986Z,71.90
2018-08-17T10:00:05.820Z,71.40
2018-08-17T10:02:39.633Z,66.60
2018-08-17T10:05:13.589Z,69.60
2018-08-17T10:07:47.420Z,70.20
2018-08-17T10:10:25.460Z,72.00
2018-08-17T10:12:53.920Z,73.00
2018-08-17T10:15:23.567Z,73.30
2018-08-17T10:17:52.293Z,72.10
2018-08-17T10:20:21.835Z,71.20
2018-08-17T10:22:50.271Z,71.30
2018-08-17T10:25:21.917Z,72.50
2018-08-17T10:27:51.830Z,70.60
2018-08-17T10:30:21.028Z,71.30
2018-08-17T10:32:57.744Z,73.10
2018-08-17T10:35:30.504Z,71.70
2018-08-17T10:38:00.260Z,71.70
2018-08-17T10:40:28.714Z,71.70
2018-08-17T10:42:58.546Z,68.00
2018-08-17T10:45:28.529Z,70.00
2018-08-17T10:48:00.470Z,69.70
2018-08-17T10:50:34.620Z,68.40
2018-08-17T10:53:03.994Z,67.70
2018-08-17T10:55:40.916Z,67.00
2018-08-17T10:58:12.334Z,66.10
2018-08-17T11:00:41.265Z,66.30
2018-08-17T11:03:09.798Z,67.40
2018-08-17T11:05:38.105Z,66.20
2018-08-17T11:08:06.441Z,66.80
2018-08-17T11:10:34.869Z,64.70
2018-08-17T11:13:03.396Z,65.80
2018-08-17T11:15:31.899Z,64.90
2018-08-17T11:18:00.242Z,66.30
2018-08-17T11:20:28.550Z,65.70
2018-08-17T11:22:56.937Z,64.40
2018-08-17T11:25:25.576Z,66.20
2018-08-17T11:27:53.900Z,66.30
2018-08-17T11:30:22.240Z,65.70
2018-08-17T11:32:50.612Z,65.30
2018-08-17T11:35:18.954Z,66.10
2018-08-17T11:37:47.236Z,65.90
2018-08-17T11:40:15.551Z,65.70
2018-08-17T11:42:51.496Z,63.90
2018-08-17T11:45:22.173Z,63.90
2018-08-17T11:47:50.979Z,64.50
2018-08-17T11:50:20.842Z,62.20
2018-08-17T11:52:54.242Z,65.50
2018-08-17T11:55:23.548Z,65.10
2018-08-17T11:57:51.925Z,63.60
2018-08-17T12:00:20.251Z,63.80
2018-08-17T12:02:48.556Z,63.60
2018-08-17T12:05:16.868Z,63.50
2018-08-17T12:07:46.109Z,65.00
2018-08-17T12:10:14.509Z,63.20
2018-08-17T12:12:43.746Z,62.00
2018-08-17T12:15:12.849Z,62.50
2018-08-17T12:17:41.159Z,62.80
2018-08-17T12:20:09.488Z,62.40
2018-08-17T12:22:37.862Z,63.10
2018-08-17T12:25:07.529Z,62.00
2018-08-17T12:27:35.901Z,61.50
2018-08-17T12:30:04.822Z,58.80
2018-08-17T12:32:33.122Z,59.70
2018-08-17T12:35:01.454Z,61.10
2018-08-17T12:37:29.804Z,61.10
2018-08-17T12:39:58.215Z,61.10
2018-08-17T12:42:26.629Z,60.70
2018-08-17T12:44:57.653Z,60.60
2018-08-17T12:47:25.981Z,62.50
2018-08-17T12:49:54.302Z,62.50
2018-08-17T12:52:22.746Z,61.80
2018-08-17T12:54:51.112Z,60.80
2018-08-17T12:57:19.492Z,60.50
2018-08-17T12:59:47.829Z,61.60
2018-08-17T13:02:16.168Z,61.50
2018-08-17T13:04:44.445Z,59.30
2018-08-17T13:07:12.817Z,60.30
2018-08-17T13:09:41.164Z,61.50
2018-08-17T13:12:09.844Z,59.70
2018-08-17T13:14:38.131Z,60.10
2018-08-17T13:17:06.488Z,60.80
2018-08-17T13:19:34.801Z,60.30
2018-08-17T13:22:03.219Z,59.90
2018-08-17T13:24:31.522Z,58.90
2018-08-17T13:26:59.806Z,58.40
2018-08-17T13:29:28.212Z,57.40
2018-08-17T13:31:56.540Z,56.90
2018-08-17T13:34:24.977Z,57.00
2018-08-17T13:36:53.265Z,56.10
2018-08-17T13:39:21.589Z,56.90
2018-08-17T13:41:49.913Z,56.60
2018-08-17T13:44:19.076Z,57.10
2018-08-17T13:46:47.446Z,56.50
2018-08-17T13:49:15.776Z,58.70
2018-08-17T13:51:44.140Z,57.50
2018-08-17T13:54:12.516Z,58.30
2018-08-17T13:56:40.866Z,55.90
2018-08-17T13:59:09.195Z,54.40
2018-08-17T14:01:37.488Z,56.20
2018-08-17T14:04:05.793Z,57.60
2018-08-17T14:06:34.097Z,58.10
2018-08-17T14:09:02.413Z,57.90
2018-08-17T14:11:30.789Z,56.40
2018-08-17T14:13:59.318Z,56.90
2018-08-17T14:16:28.112Z,56.90
2018-08-17T14:18:56.406Z,57.20
2018-08-17T14:21:24.901Z,57.70
2018-08-17T14:23:53.378Z,57.30
2018-08-17T14:26:21.734Z,58.00
2018-08-17T14:28:50.159Z,56.40
2018-08-17T14:31:18.505Z,57.10
2018-08-17T14:33:46.784Z,56.20
2018-08-17T14:36:15.096Z,56.70
2018-08-17T14:38:43.764Z,57.30
2018-08-17T14:41:12.075Z,58.20
2018-08-17T14:43:40.400Z,57.80
2018-08-17T14:46:09.053Z,58.10
2018-08-17T14:48:38.339Z,56.90
2018-08-17T14:51:06.683Z,56.70
2018-08-17T14:53:34.977Z,57.70
2018-08-17T14:56:03.292Z,56.60
2018-08-17T14:58:31.652Z,57.40
2018-08-17T15:00:59.961Z,57.40
2018-08-17T15:03:28.359Z,57.50
2018-08-17T15:05:56.679Z,57.50
2018-08-17T15:08:24.977Z,59.80
2018-08-17T15:10:53.314Z,59.50
2018-08-17T15:13:22.626Z,58.90
2018-08-17T15:15:50.936Z,59.30
2018-08-17T15:18:19.258Z,59.70
2018-08-17T15:20:47.562Z,60.40
2018-08-17T15:23:15.849Z,58.70
2018-08-17T15:25:44.144Z,58.80
2018-08-17T15:28:12.734Z,59.40
2018-08-17T15:30:41.826Z,59.70
2018-08-17T15:33:11.057Z,59.20
2018-08-17T15:35:39.472Z,59.60
2018-08-17T15:38:07.824Z,59.50
2018-08-17T15:40:36.173Z,59.70
2018-08-17T15:43:19.356Z,58.60
2018-08-17T15:45:48.893Z,59.50
2018-08-17T15:48:17.597Z,59.60
2018-08-17T15:50:45.892Z,59.80
2018-08-17T15:53:14.255Z,60.00
2018-08-17T15:55:42.568Z,59.90
2018-08-17T15:58:11.044Z,60.30
2018-08-17T16:00:39.448Z,60.60
2018-08-17T16:03:07.741Z,60.30
2018-08-17T16:05:36.106Z,59.10
2018-08-17T16:08:04.488Z,58.60
2018-08-17T16:10:32.766Z,59.30
2018-08-17T16:13:01.115Z,60.20
2018-08-17T16:15:30.057Z,62.50
2018-08-17T16:17:58.468Z,63.30
2018-08-17T16:20:26.776Z,62.10
2018-08-17T16:22:55.192Z,61.70
2018-08-17T16:25:23.498Z,63.00
2018-08-17T16:27:51.782Z,62.80
2018-08-17T16:30:20.156Z,61.60
2018-08-17T16:32:48.544Z,63.70
2018-08-17T16:35:16.881Z,64.10
2018-08-17T16:37:47.157Z,63.00
2018-08-17T16:40:15.700Z,60.90
2018-08-17T16:42:44.217Z,61.50
2018-08-17T16:45:12.512Z,61.60
2018-08-17T16:47:40.892Z,63.10
2018-08-17T16:50:09.755Z,62.20
2018-08-17T16:52:38.160Z,61.20
2018-08-17T16:55:06.538Z,61.90
2018-08-17T16:57:35.092Z,63.40
2018-08-17T17:00:03.640Z,63.70
2018-08-17T17:02:32.007Z,63.10
2018-08-17T17:05:00.375Z,64.00
2018-08-17T17:07:30.674Z,64.20
2018-08-17T17:09:59.138Z,63.40
2018-08-17T17:12:27.748Z,63.80
2018-08-17T17:15:06.309Z,64.30
2018-08-17T17:17:34.760Z,63.20
2018-08-17T17:20:03.148Z,62.50
2018-08-17T17:22:31.562Z,62.70
2018-08-17T17:25:04.368Z,62.70
2018-08-17T17:27:33.685Z,62.50
2018-08-17T17:30:02.065Z,62.60
2018-08-17T17:32:30.635Z,62.90
2018-08-17T17:34:59.249Z,62.10
2018-08-17T17:37:27.609Z,63.10
2018-08-17T17:39:56.144Z,63.60
2018-08-17T17:42:24.892Z,62.90
2018-08-17T17:44:53.384Z,62.60
2018-08-17T17:47:21.845Z,63.10
2018-08-17T17:49:50.118Z,63.70
2018-08-17T17:52:18.519Z,64.80
2018-08-17T17:54:46.874Z,64.90
2018-08-17T17:57:15.220Z,65.30
2018-08-17T17:59:47.911Z,66.00
2018-08-17T18:02:16.429Z,64.60
2018-08-17T18:04:44.799Z,65.20
2018-08-17T18:07:13.147Z,66.10
2018-08-17T18:09:41.763Z,66.50
2018-08-17T18:12:10.093Z,66.30
2018-08-17T18:14:38.926Z,66.20
2018-08-17T18:17:08.288Z,66.10
2018-08-17T18:19:37.118Z,66.60
2018-08-17T18:22:05.553Z,66.20
2018-08-17T18:24:33.967Z,65.50
2018-08-17T18:27:02.359Z,65.30
2018-08-17T18:29:30.867Z,65.20
2018-08-17T18:31:59.221Z,65.10
2018-08-17T18:34:27.981Z,65.40
2018-08-17T18:36:56.563Z,64.80
2018-08-17T18:39:25.074Z,65.00
2018-08-17T18:41:53.645Z,65.60
2018-08-17T18:44:22.101Z,65.80
2018-08-17T18:46:50.614Z,66.30
2018-08-17T18:49:19.033Z,66.70
2018-08-17T18:51:47.415Z,66.80
2018-08-17T18:54:15.880Z,67.80
2018-08-17T18:56:44.314Z,68.20
2018-08-17T18:59:13.269Z,68.80
2018-08-17T19:01:41.722Z,69.00
2018-08-17T19:04:10.079Z,69.60
2018-08-17T19:06:38.566Z,69.70
2018-08-17T19:09:08.567Z,69.90
2018-08-17T19:11:37.281Z,70.20
2018-08-17T19:14:05.788Z,70.60
2018-08-17T19:16:34.301Z,70.90
2018-08-17T19:19:02.697Z,71.10
2018-08-17T19:21:31.092Z,71.10
2018-08-17T19:23:59.461Z,70.90
2018-08-17T19:26:27.883Z,71.50
2018-08-17T19:28:56.437Z,73.50
2018-08-17T19:31:25.242Z,72.40
2018-08-17T19:33:54.038Z,72.50
2018-08-17T19:36:22.804Z,73.30
2018-08-17T19:38:51.348Z,73.30
2018-08-17T19:41:19.745Z,73.60
2018-08-17T19:43:48.261Z,73.70
2018-08-17T19:46:16.962Z,73.40
2018-08-17T19:48:45.268Z,73.60
2018-08-17T19:51:19.710Z,73.40
2018-08-17T19:53:48.500Z,73.80
2018-08-17T19:56:17.249Z,73.80
2018-08-17T19:58:45.957Z,74.80
2018-08-17T20:01:14.447Z,74.40
2018-08-17T20:03:43.790Z,74.40
2018-08-17T20:06:12.453Z,74.80
2018-08-17T20:08:40.980Z,76.10
2018-08-17T20:11:09.814Z,75.20
2018-08-17T20:13:38.323Z,75.50
2018-08-17T20:16:15.886Z,76.00
2018-08-17T20:18:44.277Z,75.40
2018-08-17T20:21:12.763Z,75.90
2018-08-17T20:23:41.438Z,76.00
2018-08-17T20:26:10.391Z,76.10
2018-08-17T20:28:38.847Z,77.10
2018-08-17T20:31:07.330Z,76.80
2018-08-17T20:33:35.856Z,76.80
2018-08-17T20:36:04.483Z,77.60
2018-08-17T20:38:33.119Z,77.20
2018-08-17T20:41:01.652Z,77.40
2018-08-17T20:43:30.311Z,78.20
2018-08-17T20:45:59.111Z,79.40
2018-08-17T20:48:28.253Z,78.30
2018-08-17T20:50:56.780Z,78.00
2018-08-17T20:53:26.436Z,79.10
2018-08-17T20:55:56.913Z,79.10
2018-08-17T20:58:26.473Z,79.00
2018-08-17T21:00:56.439Z,78.80
2018-08-17T21:03:25.329Z,79.00
2018-08-17T21:05:54.697Z,79.00
2018-08-17T21:08:25.254Z,79.50
2018-08-17T21:10:56.399Z,79.80
2018-08-17T21:13:25.583Z,79.70
2018-08-17T21:15:56.292Z,79.80
2018-08-17T21:18:26.886Z,80.70
2018-08-17T21:20:56.483Z,80.80
2018-08-17T21:23:28.971Z,80.70
2018-08-17T21:26:01.019Z,80.80
2018-08-17T21:28:32.115Z,80.40
2018-08-17T21:31:01.040Z,81.20
2018-08-17T21:33:34.986Z,81.30
2018-08-17T21:36:07.487Z,81.60
2018-08-17T21:38:37.602Z,83.40
2018-08-17T21:41:09.390Z,82.60
2018-08-17T21:43:39.566Z,82.00
2018-08-17T21:46:09.482Z,82.20
2018-08-17T21:48:40.801Z,82.50
2018-08-17T21:51:09.457Z,83.00
2018-08-17T21:53:38.160Z,82.60
2018-08-17T21:56:07.094Z,83.00
2018-08-17T21:58:35.607Z,83.30
2018-08-17T22:01:04.384Z,83.30
2018-08-17T22:03:35.900Z,83.40
2018-08-17T22:06:05.109Z,83.40
2018-08-17T22:08:33.730Z,83.00
2018-08-17T22:11:02.622Z,83.40
2018-08-17T22:13:34.744Z,82.90
2018-08-17T22:16:03.729Z,83.40
2018-08-17T22:18:32.509Z,83.60
2018-08-17T22:21:01.181Z,83.80
2018-08-17T22:23:30.754Z,84.30
2018-08-17T22:25:59.534Z,84.70
2018-08-17T22:28:28.430Z,85.10
2018-08-17T22:30:57.272Z,84.80
2018-08-17T22:33:25.807Z,84.70
2018-08-17T22:35:54.458Z,85.20
2018-08-17T22:38:23.419Z,84.60
2018-08-17T22:40:51.965Z,84.70
2018-08-17T22:43:20.985Z,84.50
2018-08-17T22:45:49.498Z,85.50
2018-08-17T22:48:18.239Z,84.40
2018-08-17T22:50:47.280Z,85.90
2018-08-17T22:53:15.964Z,85.80
2018-08-17T22:55:44.488Z,86.20
2018-08-17T22:58:14.386Z,87.00
2018-08-17T23:00:43.181Z,86.40
2018-08-17T23:03:12.289Z,86.80
2018-08-17T23:05:41.432Z,86.30
2018-08-17T23:08:10.141Z,87.00
2018-08-17T23:10:39.196Z,88.10
2018-08-17T23:13:07.991Z,86.40
2018-08-17T23:15:36.788Z,88.20
2018-08-17T23:18:06.023Z,87.40
2018-08-17T23:20:35.702Z,87.20
2018-08-17T23:23:05.275Z,87.70
2018-08-17T23:25:34.423Z,87.60
2018-08-17T23:28:02.821Z,88.00
2018-08-17T23:30:31.680Z,88.20
2018-08-17T23:33:00.200Z,88.70
2018-08-17T23:35:28.946Z,89.70
2018-08-17T23:37:57.801Z,89.40
2018-08-17T23:40:26.885Z,89.90
2018-08-17T23:42:55.936Z,90.00
2018-08-17T23:45:24.767Z,90.70
2018-08-17T23:47:54.209Z,89.60
2018-08-17T23:50:22.805Z,90.10
2018-08-17T23:52:51.340Z,90.30
2018-08-17T23:55:20.198Z,90.50
2018-08-17T23:57:48.664Z,90.70
